createdAt,value
2023-03-07T00:01:41.742Z,91.53
2023-03-07T00:04:12.200Z,91.96
2023-03-07T00:06:42.891Z,91.86
2023-03-07T00:09:13.310Z,91.86
2023-03-07T00:11:43.729Z,92.26
2023-03-07T00:14:14.669Z,91.96
2023-03-07T00:16:45.232Z,91.71
2023-03-07T00:19:16.173Z,91.88
2023-03-07T00:21:47.034Z,91.88
2023-03-07T00:24:18.064Z,91.84
2023-03-07T00:26:49.039Z,91.84
2023-03-07T00:29:19.399Z,92.03
2023-03-07T00:31:50.464Z,91.71
2023-03-07T00:34:21.139Z,92.13
2023-03-07T00:36:51.596Z,92.13
2023-03-07T00:39:23.278Z,91.71
2023-03-07T00:41:53.961Z,92.67
2023-03-07T00:44:24.593Z,92.31
2023-03-07T00:46:54.873Z,92.31
2023-03-07T00:49:25.436Z,92.08
2023-03-07T00:51:55.744Z,92.76
2023-03-07T00:54:26.539Z,92.52
2023-03-07T00:56:57.671Z,92.52
2023-03-07T00:59:28.166Z,92.90
2023-03-07T01:01:58.542Z,92.90
2023-03-07T01:04:29.525Z,93.54
2023-03-07T01:07:01.198Z,93.72
2023-03-07T01:09:32.219Z,94.05
2023-03-07T01:12:04.097Z,94.18
2023-03-07T01:14:35.318Z,94.18
2023-03-07T01:17:05.813Z,93.92
2023-03-07T01:19:36.843Z,94.34
2023-03-07T01:22:07.220Z,94.69
2023-03-07T01:24:39.046Z,94.86
2023-03-07T01:27:09.366Z,94.86
2023-03-07T01:29:39.810Z,95.95
2023-03-07T01:32:10.290Z,96.67
2023-03-07T01:34:41.092Z,97.13
2023-03-07T01:37:11.685Z,97.48
2023-03-07T01:39:42.124Z,97.15
2023-03-07T01:42:12.589Z,97.43
2023-03-07T01:45:01.372Z,97.46
2023-03-07T01:47:32.102Z,98.06
2023-03-07T01:50:05.541Z,98.06
2023-03-07T01:52:39.119Z,97.92
2023-03-07T01:55:17.988Z,97.92
2023-03-07T01:57:51.292Z,98.43
2023-03-07T02:00:22.987Z,97.80
2023-03-07T02:02:56.372Z,97.80
2023-03-07T02:05:30.000Z,98.13
2023-03-07T02:08:03.167Z,97.90
2023-03-07T02:10:35.304Z,97.40
2023-03-07T02:13:06.698Z,97.42
2023-03-07T02:15:38.391Z,97.20
2023-03-07T02:18:12.584Z,97.20
2023-03-07T02:21:06.251Z,97.04
2023-03-07T02:23:59.254Z,96.80
2023-03-07T02:26:43.542Z,96.84
2023-03-07T02:29:15.859Z,96.75
2023-03-07T02:31:46.849Z,96.54
2023-03-07T02:34:28.321Z,96.54
2023-03-07T02:37:02.098Z,96.81
2023-03-07T02:39:33.158Z,96.70
2023-03-07T02:42:06.371Z,96.70
2023-03-07T02:44:37.581Z,95.74
2023-03-07T02:47:08.264Z,95.42
2023-03-07T02:49:38.521Z,95.54
2023-03-07T02:52:09.422Z,95.61
2023-03-07T02:54:40.075Z,95.85
2023-03-07T02:57:10.501Z,95.89
2023-03-07T02:59:42.036Z,95.89
2023-03-07T03:02:12.767Z,95.60
2023-03-07T03:04:43.319Z,94.84
2023-03-07T03:07:13.755Z,94.15
2023-03-07T03:09:44.409Z,94.09
2023-03-07T03:12:15.090Z,94.13
2023-03-07T03:14:46.080Z,94.26
2023-03-07T03:17:17.266Z,95.42
2023-03-07T03:19:48.297Z,95.99
2023-03-07T03:22:18.937Z,95.59
2023-03-07T03:24:49.670Z,95.59
2023-03-07T03:27:20.000Z,94.92
2023-03-07T03:29:50.453Z,95.32
2023-03-07T03:32:21.133Z,96.05
2023-03-07T03:34:51.425Z,97.37
2023-03-07T03:37:21.856Z,97.09
2023-03-07T03:39:56.473Z,96.57
2023-03-07T03:42:26.805Z,96.18
2023-03-07T03:44:57.209Z,95.31
2023-03-07T03:47:27.558Z,95.62
2023-03-07T03:49:58.658Z,95.38
2023-03-07T03:52:29.124Z,95.22
2023-03-07T03:54:59.773Z,95.89
2023-03-07T03:57:31.270Z,97.25
2023-03-07T04:00:02.100Z,96.52
2023-03-07T04:02:32.792Z,96.52
2023-03-07T04:05:03.125Z,97.01
2023-03-07T04:07:34.197Z,97.10
2023-03-07T04:10:05.487Z,97.10
2023-03-07T04:12:36.281Z,99.12
2023-03-07T04:15:08.430Z,99.09
2023-03-07T04:17:39.314Z,97.73
2023-03-07T04:20:10.541Z,97.23
2023-03-07T04:22:40.863Z,97.23
2023-03-07T04:25:11.739Z,98.43
2023-03-07T04:27:42.264Z,97.48
2023-03-07T04:30:13.110Z,97.23
2023-03-07T04:32:44.660Z,97.23
2023-03-07T04:35:14.934Z,97.68
2023-03-07T04:37:45.984Z,97.29
2023-03-07T04:40:16.567Z,97.29
2023-03-07T04:42:47.011Z,97.54
2023-03-07T04:45:17.384Z,97.27
2023-03-07T04:47:47.683Z,97.68
2023-03-07T04:50:20.057Z,98.27
2023-03-07T04:52:50.600Z,98.00
2023-03-07T04:55:21.044Z,98.00
2023-03-07T04:57:51.474Z,98.36
2023-03-07T05:00:22.757Z,98.18
2023-03-07T05:03:05.949Z,97.93
2023-03-07T05:05:37.730Z,98.32
2023-03-07T05:08:09.527Z,98.19
2023-03-07T05:10:40.027Z,98.19
2023-03-07T05:13:12.834Z,98.05
2023-03-07T05:15:44.112Z,98.72
2023-03-07T05:18:14.908Z,98.96
2023-03-07T05:20:45.341Z,97.79
2023-03-07T05:23:15.805Z,98.85
2023-03-07T05:25:46.673Z,99.17
2023-03-07T05:28:18.320Z,100.00
2023-03-07T05:30:49.564Z,100.00
2023-03-07T05:33:20.096Z,98.46
2023-03-07T05:35:50.710Z,98.82
2023-03-07T05:38:21.346Z,98.72
2023-03-07T05:40:52.794Z,97.91
2023-03-07T05:43:23.939Z,97.91
2023-03-07T05:45:54.495Z,98.42
2023-03-07T05:48:24.969Z,98.98
2023-03-07T05:50:55.432Z,99.26
2023-03-07T05:53:26.371Z,99.70
2023-03-07T05:55:57.338Z,99.70
2023-03-07T05:58:31.358Z,98.75
2023-03-07T06:01:10.005Z,99.43
2023-03-07T06:03:41.143Z,99.00
2023-03-07T06:06:12.530Z,99.00
2023-03-07T06:08:43.614Z,97.76
2023-03-07T06:11:17.841Z,97.76
2023-03-07T06:13:48.271Z,95.28
2023-03-07T06:16:19.586Z,92.23
2023-03-07T06:18:50.732Z,89.67
2023-03-07T06:21:21.775Z,88.72
2023-03-07T06:23:52.145Z,88.19
2023-03-07T06:26:22.573Z,89.07
2023-03-07T06:28:53.760Z,89.07
2023-03-07T06:31:24.293Z,90.89
2023-03-07T06:33:57.441Z,92.84
2023-03-07T06:36:28.378Z,93.92
2023-03-07T06:38:59.623Z,95.14
2023-03-07T06:41:30.102Z,96.27
2023-03-07T06:44:00.549Z,96.97
2023-03-07T06:46:31.063Z,97.00
2023-03-07T06:49:03.188Z,97.43
2023-03-07T06:51:38.679Z,98.42
2023-03-07T06:54:09.682Z,98.42
2023-03-07T06:56:41.244Z,97.75
2023-03-07T06:59:12.912Z,97.98
2023-03-07T07:01:43.424Z,97.98
2023-03-07T07:04:14.485Z,99.48
2023-03-07T07:06:45.450Z,100.00
2023-03-07T07:09:17.025Z,100.00
2023-03-07T07:11:49.367Z,100.00
2023-03-07T07:14:21.282Z,100.00
2023-03-07T07:16:53.920Z,100.00
2023-03-07T07:19:24.563Z,100.00
2023-03-07T07:21:55.687Z,100.00
2023-03-07T07:24:26.314Z,100.00
2023-03-07T07:26:57.006Z,100.00
2023-03-07T07:29:27.575Z,100.00
2023-03-07T07:31:58.094Z,99.26
2023-03-07T07:34:28.577Z,98.88
2023-03-07T07:36:59.323Z,98.88
2023-03-07T07:39:32.590Z,98.70
2023-03-07T07:42:03.103Z,96.17
2023-03-07T07:44:33.848Z,95.33
2023-03-07T07:47:04.248Z,93.33
2023-03-07T07:49:34.594Z,90.65
2023-03-07T07:52:05.324Z,88.34
2023-03-07T07:54:37.628Z,86.39
2023-03-07T07:57:08.858Z,86.39
2023-03-07T07:59:43.039Z,85.68
2023-03-07T08:02:14.210Z,85.68
2023-03-07T08:04:44.932Z,81.74
2023-03-07T08:07:15.798Z,81.74
2023-03-07T08:09:46.485Z,80.49
2023-03-07T08:12:18.244Z,81.02
2023-03-07T08:14:48.952Z,80.77
2023-03-07T08:17:19.392Z,79.76
2023-03-07T08:19:50.247Z,79.76
2023-03-07T08:22:20.570Z,72.57
2023-03-07T08:24:51.084Z,72.57
2023-03-07T08:27:24.775Z,70.80
2023-03-07T08:29:59.123Z,70.80
2023-03-07T08:32:29.629Z,66.92
2023-03-07T08:35:00.216Z,67.16
2023-03-07T08:37:30.696Z,67.85
2023-03-07T08:40:07.128Z,67.85
2023-03-07T08:42:58.666Z,64.49
2023-03-07T08:45:31.541Z,64.49
2023-03-07T08:48:03.152Z,63.06
2023-03-07T08:50:35.448Z,63.17
2023-03-07T08:53:06.288Z,59.04
2023-03-07T08:55:38.638Z,59.37
2023-03-07T08:58:10.418Z,59.37
2023-03-07T09:00:41.476Z,58.39
2023-03-07T09:03:11.935Z,54.42
2023-03-07T09:05:42.311Z,52.92
2023-03-07T09:08:12.901Z,52.25
2023-03-07T09:10:44.911Z,52.25
2023-03-07T09:13:18.225Z,53.41
2023-03-07T09:15:48.014Z,52.12
2023-03-07T09:18:18.513Z,52.64
2023-03-07T09:21:00.346Z,50.65
2023-03-07T09:23:32.333Z,50.17
2023-03-07T09:26:04.468Z,49.46
2023-03-07T09:28:35.013Z,49.55
2023-03-07T09:31:10.404Z,50.36
2023-03-07T09:33:46.176Z,50.53
2023-03-07T09:36:16.634Z,48.34
2023-03-07T09:38:50.796Z,49.44
2023-03-07T09:45:06.923Z,46.77
2023-03-07T09:47:52.445Z,46.77
2023-03-07T09:50:41.650Z,45.27
2023-03-07T09:53:19.210Z,47.36
2023-03-07T09:55:50.254Z,49.92
2023-03-07T09:58:24.210Z,49.56
2023-03-07T10:00:57.569Z,49.56
2023-03-07T10:03:40.254Z,48.84
2023-03-07T10:06:30.109Z,48.84
2023-03-07T10:09:02.663Z,48.74
2023-03-07T10:11:56.631Z,48.72
2023-03-07T10:14:51.804Z,46.39
2023-03-07T10:17:53.630Z,46.60
2023-03-07T10:23:48.709Z,43.74
2023-03-07T10:29:21.158Z,41.04
2023-03-07T10:31:57.279Z,38.54
2023-03-07T10:34:32.669Z,39.27
2023-03-07T10:37:37.092Z,39.82
2023-03-07T10:40:12.597Z,41.63
2023-03-07T10:42:43.460Z,41.91
2023-03-07T10:45:17.387Z,42.82
2023-03-07T10:47:48.570Z,43.49
2023-03-07T10:50:38.728Z,43.58
2023-03-07T10:53:36.930Z,43.61
2023-03-07T10:56:16.176Z,42.71
2023-03-07T10:59:06.675Z,43.20
2023-03-07T11:01:40.953Z,42.69
2023-03-07T11:04:25.731Z,42.69
2023-03-07T11:07:01.043Z,43.08
2023-03-07T11:09:33.911Z,42.10
2023-03-07T11:12:16.701Z,41.43
2023-03-07T11:14:55.882Z,41.58
2023-03-07T11:17:28.971Z,41.58
2023-03-07T11:20:00.000Z,42.02
2023-03-07T11:22:33.004Z,39.10
2023-03-07T11:25:14.915Z,38.20
2023-03-07T11:27:51.696Z,38.62
2023-03-07T11:33:32.967Z,38.70
2023-03-07T11:36:06.534Z,38.29
2023-03-07T11:41:47.931Z,38.30
2023-03-07T11:44:45.407Z,37.26
2023-03-07T11:47:47.210Z,37.26
2023-03-07T11:50:26.154Z,36.54
2023-03-07T11:53:15.605Z,36.26
2023-03-07T11:55:49.206Z,35.59
2023-03-07T11:58:40.956Z,35.40
2023-03-07T12:01:31.785Z,35.04
2023-03-07T12:04:17.050Z,34.93
2023-03-07T12:07:17.514Z,34.91
2023-03-07T12:10:16.596Z,35.38
2023-03-07T12:12:55.217Z,36.33
2023-03-07T12:15:31.143Z,36.01
2023-03-07T12:18:20.091Z,36.60
2023-03-07T12:20:53.388Z,37.09
2023-03-07T12:23:32.681Z,37.41
2023-03-07T12:26:06.129Z,37.06
2023-03-07T12:28:56.453Z,36.48
2023-03-07T12:31:38.655Z,36.78
2023-03-07T12:34:15.486Z,36.90
2023-03-07T12:36:49.338Z,36.47
2023-03-07T12:39:37.295Z,36.59
2023-03-07T12:42:25.380Z,36.59
2023-03-07T12:45:19.709Z,37.06
2023-03-07T12:47:59.109Z,37.06
2023-03-07T12:53:42.590Z,37.10
2023-03-07T12:56:21.574Z,37.62
2023-03-07T12:58:55.074Z,37.67
2023-03-07T13:01:52.871Z,37.68
2023-03-07T13:04:34.352Z,37.98
2023-03-07T13:07:26.129Z,38.17
2023-03-07T13:09:59.666Z,37.90
2023-03-07T13:12:34.173Z,37.90
2023-03-07T13:15:08.047Z,38.42
2023-03-07T13:17:44.838Z,38.52
2023-03-07T13:20:30.003Z,38.52
2023-03-07T13:23:02.714Z,38.80
2023-03-07T13:25:38.978Z,38.94
2023-03-07T13:28:44.310Z,39.54
2023-03-07T13:31:17.637Z,39.54
2023-03-07T13:33:49.440Z,39.65
2023-03-07T13:36:39.390Z,40.13
2023-03-07T13:42:37.801Z,39.33
2023-03-07T13:45:11.382Z,38.93
2023-03-07T13:47:44.257Z,39.56
2023-03-07T13:50:54.800Z,39.45
2023-03-07T13:53:47.613Z,39.39
2023-03-07T13:59:29.082Z,38.84
2023-03-07T14:02:06.196Z,39.27
2023-03-07T14:04:53.581Z,39.27
2023-03-07T14:07:33.156Z,38.98
2023-03-07T14:10:21.366Z,38.98
2023-03-07T14:13:03.203Z,39.66
2023-03-07T14:15:54.297Z,39.73
2023-03-07T14:18:38.367Z,40.01
2023-03-07T14:21:28.277Z,40.34
2023-03-07T14:24:30.512Z,40.83
2023-03-07T14:27:06.729Z,42.48
2023-03-07T14:29:37.145Z,43.79
2023-03-07T14:32:10.680Z,46.13
2023-03-07T14:34:44.265Z,48.18
2023-03-07T14:37:21.220Z,49.36
2023-03-07T14:40:18.766Z,49.36
2023-03-07T14:42:54.852Z,50.76
2023-03-07T14:45:45.958Z,50.37
2023-03-07T14:48:28.382Z,50.45
2023-03-07T14:51:02.096Z,50.57
2023-03-07T14:53:36.210Z,50.58
2023-03-07T14:56:10.998Z,50.83
2023-03-07T14:58:50.449Z,50.20
2023-03-07T15:01:23.190Z,50.66
2023-03-07T15:03:54.832Z,50.48
2023-03-07T15:06:28.440Z,50.48
2023-03-07T15:09:01.621Z,52.28
2023-03-07T15:11:40.589Z,52.28
2023-03-07T15:14:15.412Z,53.57
2023-03-07T15:16:59.516Z,54.16
2023-03-07T15:19:35.770Z,54.16
2023-03-07T15:24:52.321Z,71.65
2023-03-07T15:30:12.322Z,75.92
2023-03-07T15:32:43.103Z,77.43
2023-03-07T15:35:16.378Z,78.43
2023-03-07T15:38:01.779Z,79.62
2023-03-07T15:40:35.677Z,79.97
2023-03-07T15:43:27.284Z,81.76
2023-03-07T15:46:03.174Z,81.76
2023-03-07T15:48:37.056Z,81.54
2023-03-07T15:51:10.852Z,84.15
2023-03-07T15:53:44.455Z,85.16
2023-03-07T15:56:29.550Z,85.37
2023-03-07T15:59:03.033Z,86.38
2023-03-07T16:01:36.025Z,86.38
2023-03-07T16:04:09.485Z,89.09
2023-03-07T16:06:47.166Z,89.09
2023-03-07T16:09:20.444Z,91.29
2023-03-07T16:11:51.486Z,92.08
2023-03-07T16:14:26.334Z,92.08
2023-03-07T16:17:02.711Z,92.26
2023-03-07T16:19:34.827Z,92.18
2023-03-07T16:22:15.369Z,92.72
2023-03-07T16:24:47.079Z,92.38
2023-03-07T16:27:24.892Z,92.45
2023-03-07T16:29:55.871Z,93.53
2023-03-07T16:32:27.983Z,94.34
2023-03-07T16:34:59.027Z,94.38
2023-03-07T16:37:38.214Z,94.99
2023-03-07T16:40:10.311Z,94.99
2023-03-07T16:43:05.101Z,94.00
2023-03-07T16:45:35.650Z,95.44
2023-03-07T16:48:18.262Z,95.83
2023-03-07T16:50:49.128Z,95.83
2023-03-07T16:53:19.752Z,95.33
2023-03-07T16:58:56.890Z,94.84
2023-03-07T17:04:35.986Z,94.85
2023-03-07T17:12:11.297Z,94.39
2023-03-07T17:12:47.836Z,93.83
2023-03-07T17:18:18.891Z,93.38
2023-03-07T17:21:02.057Z,93.70
2023-03-07T17:23:37.043Z,94.93
2023-03-07T17:26:12.657Z,94.93
2023-03-07T17:28:46.748Z,95.67
2023-03-07T17:31:23.871Z,95.30
2023-03-07T17:34:05.264Z,94.37
2023-03-07T17:36:41.076Z,94.69
2023-03-07T17:39:11.975Z,94.69
2023-03-07T17:41:52.259Z,94.83
2023-03-07T17:50:43.995Z,96.12
2023-03-07T17:52:55.298Z,96.42
2023-03-07T17:58:50.543Z,96.72
2023-03-07T18:01:23.343Z,98.25
2023-03-07T18:10:02.239Z,99.26
2023-03-07T18:12:33.428Z,98.25
2023-03-07T18:15:17.656Z,98.25
2023-03-07T18:17:51.752Z,99.08
2023-03-07T18:20:29.338Z,99.08
2023-03-07T18:23:04.569Z,99.50
2023-03-07T18:29:12.668Z,99.30
2023-03-07T18:31:55.827Z,99.61
2023-03-07T18:34:32.858Z,99.61
2023-03-07T18:38:20.942Z,98.82
2023-03-07T18:43:11.107Z,97.92
2023-03-07T18:48:56.941Z,97.96
2023-03-07T18:51:40.572Z,98.43
2023-03-07T18:54:34.286Z,98.86
2023-03-07T18:57:51.452Z,98.86
2023-03-07T19:00:17.300Z,99.75
2023-03-07T19:02:47.801Z,100.00
2023-03-07T19:05:23.298Z,100.00
2023-03-07T19:08:00.951Z,100.00
2023-03-07T19:11:04.556Z,100.00
2023-03-07T19:13:38.184Z,100.00
2023-03-07T19:16:24.200Z,100.00
2023-03-07T19:22:21.910Z,100.00
2023-03-07T19:40:59.679Z,100.00
2023-03-07T19:43:54.823Z,100.00
2023-03-07T19:46:20.313Z,100.00
2023-03-07T19:48:55.203Z,100.00
2023-03-07T19:51:38.543Z,100.00
2023-03-07T19:54:12.291Z,100.00
2023-03-07T19:56:48.410Z,100.00
2023-03-07T20:02:20.568Z,100.00
2023-03-07T20:05:51.764Z,100.00
2023-03-07T20:07:42.895Z,100.00
2023-03-07T20:10:22.799Z,100.00
2023-03-07T20:16:23.319Z,100.00
2023-03-07T20:19:03.326Z,100.00
2023-03-07T20:21:47.233Z,100.00
2023-03-07T20:24:19.506Z,100.00
2023-03-07T20:26:50.798Z,100.00
2023-03-07T20:29:28.603Z,100.00
2023-03-07T20:35:20.421Z,100.00
2023-03-07T20:44:13.636Z,100.00
2023-03-07T20:46:50.570Z,100.00
2023-03-07T20:49:21.759Z,100.00
2023-03-07T20:51:54.006Z,100.00
2023-03-07T20:54:24.562Z,100.00
2023-03-07T21:00:27.966Z,100.00
2023-03-07T21:03:05.786Z,100.00
2023-03-07T21:05:32.676Z,100.00
2023-03-07T21:11:07.386Z,100.00
2023-03-07T21:13:46.649Z,100.00
2023-03-07T21:19:39.346Z,100.00
2023-03-07T21:22:09.996Z,100.00
2023-03-07T21:24:53.113Z,100.00
2023-03-07T21:27:22.804Z,100.00
2023-03-07T21:30:01.859Z,100.00
2023-03-07T21:32:33.021Z,100.00
2023-03-07T21:35:05.810Z,100.00
2023-03-07T21:37:45.915Z,100.00
2023-03-07T21:40:18.321Z,100.00
2023-03-07T21:43:47.380Z,100.00
2023-03-07T21:45:42.811Z,100.00
2023-03-07T21:48:18.500Z,100.00
2023-03-07T21:50:59.512Z,100.00
2023-03-07T21:53:30.946Z,100.00
2023-03-07T21:56:15.607Z,100.00
2023-03-07T21:58:50.821Z,100.00
2023-03-07T22:01:25.724Z,100.00
2023-03-07T22:03:58.715Z,100.00
2023-03-07T22:06:30.203Z,100.00
2023-03-07T22:09:01.359Z,100.00
2023-03-07T22:11:31.903Z,100.00
2023-03-07T22:14:03.545Z,100.00
2023-03-07T22:16:34.623Z,100.00
2023-03-07T22:19:05.844Z,100.00
2023-03-07T22:21:37.924Z,100.00
2023-03-07T22:24:08.444Z,100.00
2023-03-07T22:26:39.380Z,100.00
2023-03-07T22:29:09.851Z,100.00
2023-03-07T22:31:41.268Z,100.00
2023-03-07T22:34:14.146Z,100.00
2023-03-07T22:36:45.277Z,100.00
2023-03-07T22:39:17.301Z,100.00
2023-03-07T22:41:49.049Z,100.00
2023-03-07T22:44:20.051Z,100.00
2023-03-07T22:46:50.577Z,100.00
2023-03-07T22:49:21.678Z,100.00
2023-03-07T22:51:52.031Z,100.00
2023-03-07T22:54:23.371Z,100.00
2023-03-07T22:56:54.181Z,100.00
2023-03-07T22:59:24.720Z,100.00
2023-03-07T23:01:55.091Z,100.00
2023-03-07T23:04:25.425Z,100.00
2023-03-07T23:06:56.763Z,100.00
2023-03-07T23:09:27.300Z,100.00
2023-03-07T23:11:58.153Z,100.00
2023-03-07T23:14:28.697Z,100.00
2023-03-07T23:16:59.189Z,100.00
2023-03-07T23:19:31.523Z,100.00
2023-03-07T23:22:01.753Z,100.00
2023-03-07T23:24:32.701Z,100.00
2023-03-07T23:27:03.241Z,100.00
2023-03-07T23:29:33.673Z,100.00
2023-03-07T23:32:05.093Z,100.00
2023-03-07T23:34:36.154Z,100.00
2023-03-07T23:37:07.401Z,100.00
2023-03-07T23:39:38.644Z,100.00
2023-03-07T23:42:12.148Z,100.00
2023-03-07T23:44:43.934Z,100.00
2023-03-07T23:47:14.792Z,100.00
2023-03-07T23:49:46.093Z,100.00
2023-03-07T23:52:16.483Z,100.00
2023-03-07T23:54:47.700Z,100.00
2023-03-07T23:57:18.257Z,100.00
2023-03-07T23:59:49.202Z,100.00
